createdAt,value
2017-01-31T00:00:40.675Z,21.12
2017-01-31T00:01:39.910Z,21.14
2017-01-31T00:02:40.328Z,21.12
2017-01-31T00:03:40.750Z,21.13
2017-01-31T00:04:40.779Z,21.12
2017-01-31T00:05:40.817Z,21.09
2017-01-31T00:06:40.440Z,21.09
2017-01-31T00:07:40.465Z,21.07
2017-01-31T00:08:40.098Z,21.07
2017-01-31T00:09:40.528Z,21.07
2017-01-31T00:10:40.548Z,21.09
2017-01-31T00:11:40.568Z,21.13
2017-01-31T00:12:40.993Z,21.03
2017-01-31T00:13:41.025Z,21.03
2017-01-31T00:14:41.053Z,21.03
2017-01-31T00:15:40.687Z,21.04
2017-01-31T00:16:40.720Z,21.03
2017-01-31T00:17:40.364Z,21.1
2017-01-31T00:18:40.644Z,21.07
2017-01-31T00:19:41.185Z,21.03
2017-01-31T00:20:41.226Z,21.01
2017-01-31T00:21:40.845Z,20.95
2017-01-31T00:22:41.280Z,21.06
2017-01-31T00:23:41.543Z,20.99
2017-01-31T00:24:41.324Z,21.06
2017-01-31T00:25:40.551Z,20.95
2017-01-31T00:26:40.974Z,20.94
2017-01-31T00:27:41.403Z,21.04
2017-01-31T00:28:40.890Z,21.07
2017-01-31T00:29:41.462Z,21.06
2017-01-31T00:30:41.483Z,20.98
2017-01-31T00:31:41.115Z,20.94
2017-01-31T00:32:41.529Z,20.98
2017-01-31T00:33:41.817Z,21.01
2017-01-31T00:34:41.592Z,20.95
2017-01-31T00:35:41.609Z,20.92
2017-01-31T00:36:40.854Z,20.97
2017-01-31T00:37:41.276Z,20.95
2017-01-31T00:38:41.554Z,20.98
2017-01-31T00:39:41.728Z,20.99
2017-01-31T00:40:40.961Z,20.97
2017-01-31T00:41:41.779Z,21.07
2017-01-31T00:42:41.410Z,20.94
2017-01-31T00:43:41.300Z,20.98
2017-01-31T00:44:41.864Z,20.98
2017-01-31T00:45:41.518Z,20.91
2017-01-31T00:46:41.516Z,20.88
2017-01-31T00:47:41.146Z,20.94
2017-01-31T00:48:42.214Z,20.92
2017-01-31T00:49:41.599Z,20.92
2017-01-31T00:50:41.623Z,20.91
2017-01-31T00:51:41.264Z,20.94
2017-01-31T00:52:42.073Z,20.91
2017-01-31T00:53:42.607Z,20.95
2017-01-31T00:54:42.130Z,20.97
2017-01-31T00:55:41.364Z,20.88
2017-01-31T00:56:41.784Z,20.92
2017-01-31T00:57:41.812Z,20.92
2017-01-31T00:58:42.241Z,20.87
2017-01-31T00:59:41.870Z,20.88
2017-01-31T01:00:41.888Z,20.87
2017-01-31T01:01:42.320Z,20.98
2017-01-31T01:02:42.345Z,20.94
2017-01-31T01:03:42.375Z,20.88
2017-01-31T01:04:41.606Z,20.89
2017-01-31T01:05:42.427Z,20.82
2017-01-31T01:06:42.452Z,20.87
2017-01-31T01:07:42.485Z,20.84
2017-01-31T01:08:42.114Z,20.89
2017-01-31T01:09:42.538Z,20.88
2017-01-31T01:10:42.559Z,20.84
2017-01-31T01:11:42.589Z,20.88
2017-01-31T01:12:42.617Z,20.84
2017-01-31T01:13:42.640Z,20.92
2017-01-31T01:14:42.671Z,20.88
2017-01-31T01:15:41.908Z,20.92
2017-01-31T01:16:42.331Z,20.85
2017-01-31T01:17:42.353Z,20.92
2017-01-31T01:18:42.376Z,20.84
2017-01-31T01:19:42.261Z,20.87
2017-01-31T01:20:57.623Z,20.88
2017-01-31T01:21:42.458Z,20.82
2017-01-31T01:22:42.487Z,20.8
2017-01-31T01:23:42.516Z,20.77
2017-01-31T01:24:42.795Z,20.74
2017-01-31T01:25:42.961Z,20.91
2017-01-31T01:26:42.594Z,20.82
2017-01-31T01:27:42.619Z,20.76
2017-01-31T01:28:42.249Z,20.85
2017-01-31T01:29:42.924Z,20.79
2017-01-31T01:30:42.692Z,20.77
2017-01-31T01:31:42.334Z,20.76
2017-01-31T01:32:42.363Z,20.8
2017-01-31T01:33:43.179Z,20.79
2017-01-31T01:34:43.455Z,20.76
2017-01-31T01:35:43.237Z,20.7
2017-01-31T01:36:43.266Z,20.7
2017-01-31T01:37:42.890Z,20.77
2017-01-31T01:38:42.923Z,20.76
2017-01-31T01:39:42.813Z,20.74
2017-01-31T01:40:42.968Z,20.73
2017-01-31T01:41:43.382Z,20.73
2017-01-31T01:42:43.017Z,20.76
2017-01-31T01:43:43.056Z,20.72
2017-01-31T01:44:43.727Z,20.7
2017-01-31T01:45:42.704Z,20.74
2017-01-31T01:46:43.165Z,20.84
2017-01-31T01:47:43.158Z,20.76
2017-01-31T01:48:43.194Z,20.74
2017-01-31T01:49:43.715Z,20.74
2017-01-31T01:50:43.240Z,20.77
2017-01-31T01:51:42.869Z,20.76
2017-01-31T01:52:43.294Z,20.72
2017-01-31T01:53:43.722Z,20.73
2017-01-31T01:54:42.950Z,20.67
2017-01-31T01:55:42.975Z,20.77
2017-01-31T01:56:43.801Z,20.7
2017-01-31T01:57:43.821Z,20.77
2017-01-31T01:58:43.075Z,20.73
2017-01-31T01:59:43.491Z,20.69
2017-01-31T02:00:43.499Z,20.64
2017-01-31T02:01:43.925Z,20.64
2017-01-31T02:02:43.165Z,20.72
2017-01-31T02:03:43.589Z,20.76
2017-01-31T02:04:43.220Z,20.67
2017-01-31T02:05:44.295Z,20.7
2017-01-31T02:06:44.068Z,20.72
2017-01-31T02:07:44.096Z,20.72
2017-01-31T02:08:43.721Z,20.69
2017-01-31T02:09:43.749Z,20.72
2017-01-31T02:10:44.697Z,20.7
2017-01-31T02:11:43.799Z,20.69
2017-01-31T02:12:43.828Z,20.7
2017-01-31T02:13:43.853Z,20.66
2017-01-31T02:14:43.492Z,20.69
2017-01-31T02:15:44.165Z,20.76
2017-01-31T02:16:44.334Z,20.61
2017-01-31T02:17:44.360Z,20.62
2017-01-31T02:18:43.984Z,20.74
2017-01-31T02:19:44.010Z,20.62
2017-01-31T02:20:43.901Z,20.61
2017-01-31T02:21:44.078Z,20.61
2017-01-31T02:22:43.700Z,20.62
2017-01-31T02:23:44.128Z,20.7
2017-01-31T02:24:44.545Z,20.58
2017-01-31T02:25:44.828Z,20.62
2017-01-31T02:26:44.206Z,20.59
2017-01-31T02:27:44.226Z,20.7
2017-01-31T02:28:44.272Z,20.64
2017-01-31T02:29:44.681Z,20.62
2017-01-31T02:30:44.697Z,20.61
2017-01-31T02:31:44.338Z,20.57
2017-01-31T02:32:44.367Z,20.64
2017-01-31T02:33:44.791Z,20.61
2017-01-31T02:34:44.419Z,20.58
2017-01-31T02:35:44.836Z,20.64
2017-01-31T02:36:44.481Z,20.62
2017-01-31T02:37:44.504Z,20.64
2017-01-31T02:38:44.927Z,20.62
2017-01-31T02:39:44.947Z,20.64
2017-01-31T02:40:44.576Z,20.64
2017-01-31T02:41:45.249Z,20.62
2017-01-31T02:42:45.027Z,20.61
2017-01-31T02:43:45.055Z,20.61
2017-01-31T02:44:44.679Z,20.61
2017-01-31T02:45:44.316Z,20.61
2017-01-31T02:46:44.992Z,20.64
2017-01-31T02:47:44.769Z,20.61
2017-01-31T02:48:45.190Z,20.62
2017-01-31T02:49:45.215Z,20.64
2017-01-31T02:50:45.239Z,20.57
2017-01-31T02:51:45.381Z,20.62
2017-01-31T02:52:45.293Z,20.61
2017-01-31T02:53:44.549Z,20.59
2017-01-31T02:54:45.378Z,20.59
2017-01-31T02:55:44.583Z,20.52
2017-01-31T02:56:44.859Z,20.66
2017-01-31T02:57:45.028Z,20.58
2017-01-31T02:58:45.057Z,20.58
2017-01-31T02:59:45.478Z,20.58
2017-01-31T03:00:45.120Z,20.57
2017-01-31T03:01:46.035Z,20.66
2017-01-31T03:02:45.567Z,20.58
2017-01-31T03:03:45.592Z,20.59
2017-01-31T03:04:45.612Z,20.54
2017-01-31T03:05:45.250Z,20.54
2017-01-31T03:06:45.918Z,20.55
2017-01-31T03:07:45.700Z,20.61
2017-01-31T03:08:45.720Z,20.58
2017-01-31T03:09:45.344Z,20.61
2017-01-31T03:10:45.769Z,20.61
2017-01-31T03:11:45.654Z,20.54
2017-01-31T03:12:45.832Z,20.59
2017-01-31T03:13:45.463Z,20.51
2017-01-31T03:14:45.485Z,20.58
2017-01-31T03:15:45.517Z,20.59
2017-01-31T03:16:45.538Z,20.55
2017-01-31T03:17:45.976Z,20.61
2017-01-31T03:18:45.988Z,20.58
2017-01-31T03:19:46.016Z,20.54
2017-01-31T03:20:45.641Z,20.59
2017-01-31T03:21:46.065Z,20.58
2017-01-31T03:22:45.942Z,20.58
2017-01-31T03:23:45.727Z,20.57
2017-01-31T03:24:45.755Z,20.54
2017-01-31T03:25:45.388Z,20.51
2017-01-31T03:26:46.205Z,20.57
2017-01-31T03:27:46.086Z,20.54
2017-01-31T03:28:46.254Z,20.51
2017-01-31T03:29:45.881Z,20.48
2017-01-31T03:31:15.564Z,20.52
2017-01-31T03:31:45.940Z,20.57
2017-01-31T03:32:45.965Z,20.58
2017-01-31T03:33:45.988Z,20.51
2017-01-31T03:34:46.967Z,20.51
2017-01-31T03:35:46.049Z,20.48
2017-01-31T03:36:46.068Z,20.52
2017-01-31T03:37:46.492Z,20.52
2017-01-31T03:38:46.124Z,20.52
2017-01-31T03:39:46.650Z,20.52
2017-01-31T03:40:46.175Z,20.55
2017-01-31T03:41:46.604Z,20.5
2017-01-31T03:42:46.233Z,20.51
2017-01-31T03:43:46.665Z,20.47
2017-01-31T03:44:46.938Z,20.52
2017-01-31T03:45:46.310Z,20.47
2017-01-31T03:46:46.331Z,20.5
2017-01-31T03:47:46.764Z,20.51
2017-01-31T03:48:46.788Z,20.5
2017-01-31T03:49:47.069Z,20.41
2017-01-31T03:50:46.450Z,20.5
2017-01-31T03:51:46.076Z,20.47
2017-01-31T03:52:46.498Z,20.51
2017-01-31T03:53:46.525Z,20.52
2017-01-31T03:54:46.805Z,20.52
2017-01-31T03:55:46.966Z,20.47
2017-01-31T03:56:46.216Z,20.43
2017-01-31T03:57:46.632Z,20.47
2017-01-31T03:58:46.660Z,20.43
2017-01-31T03:59:46.545Z,20.43
2017-01-31T04:00:46.315Z,20.43
2017-01-31T04:01:46.742Z,20.51
2017-01-31T04:02:46.367Z,20.52
2017-01-31T04:03:46.791Z,20.52
2017-01-31T04:04:47.464Z,20.54
2017-01-31T04:05:46.449Z,20.52
2017-01-31T04:06:47.269Z,20.55
2017-01-31T04:07:46.898Z,20.51
2017-01-31T04:08:47.319Z,20.5
2017-01-31T04:09:47.200Z,20.39
2017-01-31T04:10:46.975Z,20.48
2017-01-31T04:11:47.014Z,20.55
2017-01-31T04:12:47.422Z,20.48
2017-01-31T04:13:47.067Z,20.47
2017-01-31T04:14:47.742Z,20.47
2017-01-31T04:15:47.117Z,20.48
2017-01-31T04:16:46.738Z,20.39
2017-01-31T04:17:47.565Z,20.42
2017-01-31T04:18:47.196Z,20.43
2017-01-31T04:19:47.868Z,20.51
2017-01-31T04:20:47.637Z,20.47
2017-01-31T04:21:47.669Z,20.43
2017-01-31T04:22:46.902Z,20.42
2017-01-31T04:23:47.723Z,20.41
2017-01-31T04:24:47.999Z,20.38
2017-01-31T04:25:47.375Z,20.43
2017-01-31T04:26:47.414Z,20.42
2017-01-31T04:27:47.033Z,20.42
2017-01-31T04:28:47.463Z,20.47
2017-01-31T04:29:48.135Z,20.39
2017-01-31T04:30:47.517Z,20.42
2017-01-31T04:31:47.550Z,20.39
2017-01-31T04:32:47.165Z,20.41
2017-01-31T04:33:47.994Z,20.42
2017-01-31T04:34:47.870Z,20.39
2017-01-31T04:35:48.047Z,20.41
2017-01-31T04:36:48.067Z,20.43
2017-01-31T04:37:47.685Z,20.42
2017-01-31T04:38:47.723Z,20.43
2017-01-31T04:39:48.418Z,20.48
2017-01-31T04:40:47.775Z,20.42
2017-01-31T04:41:47.827Z,20.39
2017-01-31T04:42:48.229Z,20.36
2017-01-31T04:43:47.857Z,20.39
2017-01-31T04:44:47.890Z,20.36
2017-01-31T04:45:48.314Z,20.41
2017-01-31T04:46:47.548Z,20.36
2017-01-31T04:47:47.965Z,20.36
2017-01-31T04:48:47.988Z,20.41
2017-01-31T04:49:48.412Z,20.41
2017-01-31T04:50:48.042Z,20.38
2017-01-31T04:51:48.467Z,20.36
2017-01-31T04:52:48.096Z,20.41
2017-01-31T04:53:48.125Z,20.35
2017-01-31T04:54:48.149Z,20.35
2017-01-31T04:55:48.438Z,20.33
2017-01-31T04:56:48.595Z,20.39
2017-01-31T04:57:48.622Z,20.36
2017-01-31T04:58:47.852Z,20.38
2017-01-31T04:59:47.896Z,20.32
2017-01-31T05:00:48.566Z,20.33
2017-01-31T05:01:48.363Z,20.36
2017-01-31T05:02:48.766Z,20.33
2017-01-31T05:03:48.772Z,20.36
2017-01-31T05:04:48.417Z,20.41
2017-01-31T05:05:48.693Z,20.36
2017-01-31T05:06:48.862Z,20.38
2017-01-31T05:07:48.514Z,20.38
2017-01-31T05:08:48.912Z,20.35
2017-01-31T05:09:48.944Z,20.35
2017-01-31T05:10:49.227Z,20.35
2017-01-31T05:11:49.001Z,20.31
2017-01-31T05:12:48.630Z,20.36
2017-01-31T05:13:48.667Z,20.39
2017-01-31T05:14:49.069Z,20.42
2017-01-31T05:15:48.960Z,20.41
2017-01-31T05:16:49.144Z,20.36
2017-01-31T05:17:48.762Z,20.33
2017-01-31T05:18:48.387Z,20.38
2017-01-31T05:19:48.812Z,20.38
2017-01-31T05:20:48.723Z,20.36
2017-01-31T05:21:48.869Z,20.35
2017-01-31T05:22:48.894Z,20.38
2017-01-31T05:23:49.320Z,20.33
2017-01-31T05:24:48.547Z,20.39
2017-01-31T05:25:49.876Z,20.35
2017-01-31T05:26:49.009Z,20.36
2017-01-31T05:27:49.029Z,20.41
2017-01-31T05:28:49.451Z,20.41
2017-01-31T05:29:49.476Z,20.43
2017-01-31T05:30:49.748Z,20.41
2017-01-31T05:31:49.530Z,20.5
2017-01-31T05:32:49.561Z,20.42
2017-01-31T05:33:49.580Z,20.5
2017-01-31T05:34:49.614Z,20.43
2017-01-31T05:35:49.887Z,20.42
2017-01-31T05:36:49.661Z,20.58
2017-01-31T05:37:49.293Z,20.48
2017-01-31T05:38:49.714Z,20.51
2017-01-31T05:39:48.946Z,20.54
2017-01-31T05:40:50.016Z,20.51
2017-01-31T05:41:49.400Z,20.64
2017-01-31T05:42:49.430Z,20.57
2017-01-31T05:43:49.056Z,20.57
2017-01-31T05:44:49.874Z,20.59
2017-01-31T05:45:50.146Z,20.64
2017-01-31T05:46:49.559Z,20.59
2017-01-31T05:47:49.563Z,20.64
2017-01-31T05:48:49.192Z,20.59
2017-01-31T05:49:49.610Z,20.62
2017-01-31T05:50:49.901Z,20.69
2017-01-31T05:51:49.698Z,20.77
2017-01-31T05:52:50.094Z,20.7
2017-01-31T05:53:49.720Z,20.69
2017-01-31T05:54:49.748Z,20.76
2017-01-31T05:55:50.025Z,20.74
2017-01-31T05:56:49.402Z,20.84
2017-01-31T05:57:50.222Z,20.77
2017-01-31T05:58:49.455Z,20.89
2017-01-31T05:59:49.485Z,20.88
2017-01-31T06:00:50.552Z,20.87
2017-01-31T06:01:49.930Z,20.85
2017-01-31T06:02:49.957Z,20.87
2017-01-31T06:03:49.986Z,20.88
2017-01-31T06:04:50.015Z,21.03
2017-01-31T06:05:50.047Z,20.88
2017-01-31T06:06:50.080Z,20.95
2017-01-31T06:07:50.491Z,20.92
2017-01-31T06:08:50.123Z,20.95
2017-01-31T06:09:50.146Z,21.04
2017-01-31T06:10:50.572Z,21.09
2017-01-31T06:11:50.594Z,21.01
2017-01-31T06:12:49.838Z,21.04
2017-01-31T06:13:50.262Z,21.06
2017-01-31T06:14:50.682Z,21.12
2017-01-31T06:15:50.311Z,21.01
2017-01-31T06:16:50.588Z,21.13
2017-01-31T06:17:50.362Z,21.14
2017-01-31T06:18:50.386Z,21.12
2017-01-31T06:19:50.815Z,21.16
2017-01-31T06:20:50.840Z,21.14
2017-01-31T06:21:50.972Z,21.13
2017-01-31T06:22:50.496Z,21.14
2017-01-31T06:23:50.517Z,21.24
2017-01-31T06:24:50.550Z,21.19
2017-01-31T06:25:50.975Z,21.25
2017-01-31T06:26:50.853Z,21.27
2017-01-31T06:27:50.637Z,21.28
2017-01-31T06:28:50.257Z,21.34
2017-01-31T06:29:50.689Z,21.28
2017-01-31T06:30:51.106Z,21.24
2017-01-31T06:31:51.379Z,21.31
2017-01-31T06:32:50.368Z,21.28
2017-01-31T06:33:50.784Z,21.35
2017-01-31T06:34:50.825Z,21.29
2017-01-31T06:35:50.845Z,21.32
2017-01-31T06:36:51.123Z,21.31
2017-01-31T06:37:50.903Z,21.28
2017-01-31T06:38:50.533Z,21.31
2017-01-31T06:39:51.345Z,21.38
2017-01-31T06:40:51.378Z,21.38
2017-01-31T06:41:51.264Z,21.35
2017-01-31T06:42:51.435Z,21.4
2017-01-31T06:43:51.064Z,21.32
2017-01-31T06:44:51.089Z,21.4
2017-01-31T06:45:51.117Z,21.34
2017-01-31T06:46:51.394Z,21.35
2017-01-31T06:47:51.171Z,21.35
2017-01-31T06:48:51.204Z,21.34
2017-01-31T06:49:50.828Z,21.38
2017-01-31T06:50:51.649Z,21.4
2017-01-31T06:51:51.142Z,21.35
2017-01-31T06:52:51.697Z,21.46
2017-01-31T06:53:50.936Z,21.4
2017-01-31T06:54:51.761Z,21.35
2017-01-31T06:55:51.388Z,21.37
2017-01-31T06:56:51.662Z,21.38
2017-01-31T06:57:51.440Z,21.34
2017-01-31T06:58:51.077Z,21.44
2017-01-31T06:59:51.892Z,21.43
2017-01-31T07:00:51.517Z,21.4
2017-01-31T07:01:52.203Z,21.32
2017-01-31T07:02:52.001Z,21.29
2017-01-31T07:03:51.599Z,21.29
2017-01-31T07:04:51.635Z,21.38
2017-01-31T07:05:52.064Z,21.35
2017-01-31T07:06:52.334Z,21.29
2017-01-31T07:07:51.314Z,21.4
2017-01-31T07:08:51.742Z,21.37
2017-01-31T07:09:51.768Z,21.37
2017-01-31T07:10:51.397Z,21.37
2017-01-31T07:11:52.477Z,21.38
2017-01-31T07:12:51.854Z,21.38
2017-01-31T07:13:52.267Z,21.37
2017-01-31T07:14:51.899Z,21.38
2017-01-31T07:15:51.932Z,21.38
2017-01-31T07:16:52.604Z,21.28
2017-01-31T07:17:51.981Z,21.35
2017-01-31T07:18:52.015Z,21.4
2017-01-31T07:19:52.041Z,21.35
2017-01-31T07:20:52.465Z,21.35
2017-01-31T07:21:52.745Z,21.4
2017-01-31T07:22:52.517Z,21.35
2017-01-31T07:23:52.148Z,21.29
2017-01-31T07:24:52.179Z,21.34
2017-01-31T07:25:52.200Z,21.32
2017-01-31T07:26:52.877Z,21.27
2017-01-31T07:27:52.256Z,21.35
2017-01-31T07:28:52.293Z,21.32
2017-01-31T07:29:52.315Z,21.31
2017-01-31T07:30:52.332Z,21.35
2017-01-31T07:31:52.621Z,21.31
2017-01-31T07:32:52.405Z,21.29
2017-01-31T07:33:52.814Z,21.35
2017-01-31T07:34:52.843Z,21.37
2017-01-31T07:35:52.862Z,21.29
2017-01-31T07:36:53.144Z,21.35
2017-01-31T07:37:52.165Z,21.34
2017-01-31T07:38:52.577Z,21.37
2017-01-31T07:39:52.978Z,21.37
2017-01-31T07:40:52.604Z,21.22
2017-01-31T07:41:52.883Z,21.37
2017-01-31T07:42:53.053Z,21.35
2017-01-31T07:43:53.089Z,21.35
2017-01-31T07:44:53.111Z,21.34
2017-01-31T07:45:52.743Z,21.24
2017-01-31T07:46:53.424Z,21.28
2017-01-31T07:47:52.400Z,21.24
2017-01-31T07:48:53.217Z,21.21
2017-01-31T07:49:53.242Z,21.17
2017-01-31T07:50:52.887Z,21.25
2017-01-31T07:51:53.296Z,21.29
2017-01-31T07:52:52.933Z,21.25
2017-01-31T07:53:52.962Z,21.31
2017-01-31T07:54:53.386Z,21.21
2017-01-31T07:55:53.010Z,21.25
2017-01-31T07:56:53.047Z,21.22
2017-01-31T07:57:53.322Z,21.32
2017-01-31T07:58:53.493Z,21.19
2017-01-31T07:59:53.125Z,21.22
2017-01-31T08:00:52.764Z,21.22
2017-01-31T08:01:53.179Z,21.27
2017-01-31T08:02:53.452Z,21.24
2017-01-31T08:03:53.237Z,21.21
2017-01-31T08:04:53.681Z,21.21
2017-01-31T08:05:53.286Z,21.22
2017-01-31T08:06:53.738Z,21.19
2017-01-31T08:07:53.587Z,21.16
2017-01-31T08:08:53.764Z,21.19
2017-01-31T08:09:53.004Z,21.17
2017-01-31T08:10:53.818Z,21.12
2017-01-31T08:11:53.843Z,21.17
2017-01-31T08:12:54.128Z,21.17
2017-01-31T08:13:53.504Z,21.13
2017-01-31T08:14:53.528Z,21.13
2017-01-31T08:15:53.953Z,21.13
2017-01-31T08:16:53.189Z,21.13
2017-01-31T08:17:54.263Z,21.1
2017-01-31T08:18:53.239Z,21.14
2017-01-31T08:19:53.259Z,21.12
2017-01-31T08:20:53.693Z,21.13
2017-01-31T08:21:53.722Z,21.14
2017-01-31T08:22:54.398Z,21.1
2017-01-31T08:23:54.168Z,21.14
2017-01-31T08:24:54.191Z,21.07
2017-01-31T08:25:53.820Z,21.13
2017-01-31T08:26:53.854Z,21.1
2017-01-31T08:27:53.743Z,21.09
2017-01-31T08:28:53.907Z,21.14
2017-01-31T08:29:53.532Z,21.09
2017-01-31T08:30:53.965Z,21.06
2017-01-31T08:32:09.137Z,20.97
2017-01-31T08:32:53.619Z,21.07
2017-01-31T08:33:54.439Z,20.99
2017-01-31T08:34:54.071Z,21.03
2017-01-31T08:35:54.092Z,21.09
2017-01-31T08:36:54.515Z,21.03
2017-01-31T08:37:54.160Z,21.06
2017-01-31T08:38:54.829Z,21.01
2017-01-31T08:39:54.212Z,21.09
2017-01-31T08:40:54.228Z,21.07
2017-01-31T08:41:54.652Z,21.06
2017-01-31T08:42:54.282Z,20.98
2017-01-31T08:43:54.332Z,20.95
2017-01-31T08:44:54.738Z,21.03
2017-01-31T08:45:54.364Z,20.94
2017-01-31T08:46:54.397Z,20.97
2017-01-31T08:47:54.421Z,20.94
2017-01-31T08:48:54.447Z,20.97
2017-01-31T08:49:54.874Z,20.94
2017-01-31T08:50:54.900Z,20.92
2017-01-31T08:51:54.527Z,20.92
2017-01-31T08:52:54.558Z,20.95
2017-01-31T08:53:54.186Z,20.91
2017-01-31T08:54:54.227Z,21.03
2017-01-31T08:55:54.495Z,20.95
2017-01-31T08:56:54.658Z,20.94
2017-01-31T08:57:54.292Z,21.01
2017-01-31T08:58:54.717Z,20.85
2017-01-31T08:59:55.138Z,20.88
2017-01-31T09:00:55.275Z,21.04
2017-01-31T09:01:55.195Z,21.03
2017-01-31T09:02:54.828Z,20.95
2017-01-31T09:03:54.857Z,20.92
2017-01-31T09:04:54.883Z,20.95
2017-01-31T09:05:55.154Z,20.85
2017-01-31T09:06:54.543Z,20.84
2017-01-31T09:07:54.964Z,20.88
2017-01-31T09:08:54.985Z,20.87
2017-01-31T09:09:55.404Z,20.84
2017-01-31T09:10:55.937Z,20.88
2017-01-31T09:11:55.474Z,20.85
2017-01-31T09:12:55.495Z,20.88
2017-01-31T09:13:54.725Z,20.87
2017-01-31T09:14:55.153Z,20.84
2017-01-31T09:15:54.777Z,20.85
2017-01-31T09:16:55.594Z,20.89
2017-01-31T09:17:55.623Z,20.89
2017-01-31T09:18:55.644Z,20.79
2017-01-31T09:19:55.304Z,20.87
2017-01-31T09:20:55.716Z,20.85
2017-01-31T09:21:55.341Z,20.73
2017-01-31T09:22:54.970Z,20.77
2017-01-31T09:23:54.992Z,20.67
2017-01-31T09:24:55.826Z,20.77
2017-01-31T09:25:55.049Z,20.73
2017-01-31T09:26:56.485Z,20.69
2017-01-31T09:27:55.498Z,20.69
2017-01-31T09:28:55.923Z,20.7
2017-01-31T09:29:55.947Z,20.76
2017-01-31T09:30:55.586Z,20.82
2017-01-31T09:31:55.608Z,20.72
2017-01-31T09:32:56.025Z,20.74
2017-01-31T09:33:55.653Z,20.7
2017-01-31T09:34:55.682Z,20.7
2017-01-31T09:35:56.108Z,20.72
2017-01-31T09:36:56.129Z,20.72
2017-01-31T09:37:56.159Z,20.7
2017-01-31T09:38:55.806Z,20.76
2017-01-31T09:39:56.215Z,20.7
2017-01-31T09:40:56.239Z,20.76
2017-01-31T09:41:56.267Z,20.73
2017-01-31T09:42:55.501Z,20.62
2017-01-31T09:43:55.929Z,20.76
2017-01-31T09:44:56.343Z,20.77
2017-01-31T09:45:55.981Z,20.76
2017-01-31T09:46:56.255Z,20.77
2017-01-31T09:47:56.428Z,20.77
2017-01-31T09:48:56.072Z,20.74
2017-01-31T09:49:56.081Z,20.79
2017-01-31T09:50:56.108Z,20.67
2017-01-31T09:51:56.789Z,20.72
2017-01-31T09:52:56.171Z,20.73
2017-01-31T09:53:56.188Z,20.76
2017-01-31T09:54:56.617Z,20.7
2017-01-31T09:55:56.393Z,20.55
2017-01-31T09:56:56.517Z,20.79
2017-01-31T09:57:56.698Z,20.74
2017-01-31T09:58:56.327Z,20.64
2017-01-31T09:59:55.949Z,20.76
2017-01-31T10:00:56.365Z,20.66
2017-01-31T10:01:56.914Z,20.73
2017-01-31T10:02:56.838Z,20.76
2017-01-31T10:03:56.463Z,20.73
2017-01-31T10:04:56.888Z,20.69
2017-01-31T10:05:56.952Z,20.64
2017-01-31T10:06:56.788Z,20.76
2017-01-31T10:07:56.565Z,20.72
2017-01-31T10:08:56.202Z,20.67
2017-01-31T10:09:57.019Z,20.74
2017-01-31T10:10:57.048Z,20.67
2017-01-31T10:11:57.354Z,20.76
2017-01-31T10:12:57.097Z,20.77
2017-01-31T10:13:57.121Z,20.76
2017-01-31T10:14:56.354Z,20.7
2017-01-31T10:15:57.175Z,20.69
2017-01-31T10:16:57.062Z,20.74
2017-01-31T10:17:57.228Z,20.76
2017-01-31T10:18:56.460Z,20.7
2017-01-31T10:19:56.885Z,20.7
2017-01-31T10:20:57.310Z,20.72
2017-01-31T10:21:57.584Z,20.7
2017-01-31T10:22:57.367Z,20.7
2017-01-31T10:23:56.996Z,20.67
2017-01-31T10:24:56.628Z,20.8
2017-01-31T10:25:57.042Z,20.73
2017-01-31T10:26:57.727Z,20.7
2017-01-31T10:27:57.103Z,20.8
2017-01-31T10:28:57.136Z,20.74
2017-01-31T10:29:57.555Z,20.76
2017-01-31T10:30:57.576Z,20.76
2017-01-31T10:31:57.204Z,20.67
2017-01-31T10:32:57.233Z,20.79
2017-01-31T10:33:57.655Z,20.77
2017-01-31T10:34:57.688Z,20.73
2017-01-31T10:35:57.312Z,20.76
2017-01-31T10:36:57.337Z,20.79
2017-01-31T10:37:56.973Z,20.77
2017-01-31T10:38:57.791Z,20.82
2017-01-31T10:39:57.818Z,20.82
2017-01-31T10:40:57.446Z,20.79
2017-01-31T10:41:57.473Z,20.72
2017-01-31T10:42:57.502Z,20.77
2017-01-31T10:43:57.534Z,20.76
2017-01-31T10:44:57.162Z,20.76
2017-01-31T10:45:57.581Z,20.79
2017-01-31T10:46:57.613Z,20.7
2017-01-31T10:47:57.490Z,20.73
2017-01-31T10:48:58.059Z,20.77
2017-01-31T10:49:58.086Z,20.79
2017-01-31T10:50:58.120Z,20.76
2017-01-31T10:51:58.141Z,20.79
2017-01-31T10:52:58.027Z,20.76
2017-01-31T10:53:57.796Z,20.74
2017-01-31T10:54:57.434Z,20.69
2017-01-31T10:55:57.852Z,20.77
2017-01-31T10:56:57.883Z,20.76
2017-01-31T10:57:58.554Z,20.76
2017-01-31T10:58:58.328Z,20.73
2017-01-31T10:59:58.359Z,20.8
2017-01-31T11:00:57.989Z,20.76
2017-01-31T11:01:58.408Z,20.76
2017-01-31T11:02:58.690Z,20.74
2017-01-31T11:03:58.456Z,20.73
2017-01-31T11:04:58.098Z,20.74
2017-01-31T11:05:58.518Z,20.69
2017-01-31T11:06:58.543Z,20.74
2017-01-31T11:07:58.423Z,20.77
2017-01-31T11:08:58.200Z,20.77
2017-01-31T11:09:58.630Z,20.76
2017-01-31T11:10:58.253Z,20.8
2017-01-31T11:11:58.674Z,20.66
2017-01-31T11:12:58.560Z,20.76
2017-01-31T11:13:57.936Z,20.72
2017-01-31T11:14:58.360Z,20.79
2017-01-31T11:15:58.398Z,20.74
2017-01-31T11:16:58.810Z,20.73
2017-01-31T11:17:58.685Z,20.77
2017-01-31T11:18:58.475Z,20.72
2017-01-31T11:19:58.096Z,20.72
2017-01-31T11:20:58.124Z,20.79
2017-01-31T11:21:58.941Z,20.69
2017-01-31T11:22:58.837Z,20.76
2017-01-31T11:23:58.999Z,20.77
2017-01-31T11:24:58.626Z,20.72
2017-01-31T11:25:59.057Z,20.79
2017-01-31T11:26:58.283Z,20.7
2017-01-31T11:27:58.313Z,20.7
2017-01-31T11:28:59.126Z,20.77
2017-01-31T11:29:58.758Z,20.74
2017-01-31T11:30:58.391Z,20.77
2017-01-31T11:31:58.815Z,20.69
2017-01-31T11:32:58.849Z,20.7
2017-01-31T11:33:58.869Z,20.74
2017-01-31T11:34:59.289Z,20.66
2017-01-31T11:35:58.927Z,20.59
2017-01-31T11:36:58.948Z,20.76
2017-01-31T11:37:59.369Z,20.7
2017-01-31T11:38:59.001Z,20.84
2017-01-31T11:39:59.421Z,20.76
2017-01-31T11:40:59.055Z,20.73
2017-01-31T11:41:59.488Z,20.7
2017-01-31T11:42:59.504Z,20.76
2017-01-31T11:43:59.136Z,20.69
2017-01-31T11:44:59.165Z,20.72
2017-01-31T11:45:59.190Z,20.66
2017-01-31T11:46:58.815Z,20.69
2017-01-31T11:47:59.248Z,20.7
2017-01-31T11:48:58.872Z,20.72
2017-01-31T11:49:58.925Z,20.73
2017-01-31T11:50:59.730Z,20.67
2017-01-31T11:51:59.754Z,20.76
2017-01-31T11:52:59.772Z,20.66
2017-01-31T11:53:59.658Z,20.72
2017-01-31T11:54:59.444Z,20.7
2017-01-31T11:55:59.457Z,20.59
2017-01-31T11:56:59.478Z,20.76
2017-01-31T11:57:59.512Z,20.67
2017-01-31T11:58:59.791Z,20.74
2017-01-31T11:59:59.964Z,20.7
2017-01-31T12:00:59.592Z,20.76
2017-01-31T12:01:59.226Z,20.67
2017-01-31T12:03:00.042Z,20.59
2017-01-31T12:03:59.919Z,20.62
2017-01-31T12:05:00.095Z,20.64
2017-01-31T12:06:00.119Z,20.66
2017-01-31T12:07:00.151Z,20.64
2017-01-31T12:08:00.176Z,20.61
2017-01-31T12:09:00.707Z,20.69
2017-01-31T12:10:00.232Z,20.62
2017-01-31T12:10:59.864Z,20.64
2017-01-31T12:11:59.889Z,20.64
2017-01-31T12:12:59.914Z,20.67
2017-01-31T12:14:00.191Z,20.73
2017-01-31T12:15:00.363Z,20.69
2017-01-31T12:15:59.987Z,20.62
2017-01-31T12:17:00.413Z,20.64
2017-01-31T12:18:00.445Z,20.66
2017-01-31T12:19:00.323Z,20.62
2017-01-31T12:20:00.491Z,20.69
2017-01-31T12:21:00.519Z,20.62
2017-01-31T12:22:00.549Z,20.62
2017-01-31T12:23:00.184Z,20.66
2017-01-31T12:24:00.319Z,20.55
2017-01-31T12:25:00.232Z,20.62
2017-01-31T12:26:00.687Z,20.66
2017-01-31T12:27:00.680Z,20.67
2017-01-31T12:28:00.318Z,20.61
2017-01-31T12:29:00.990Z,20.61
2017-01-31T12:29:59.978Z,20.64
2017-01-31T12:31:00.391Z,20.59
2017-01-31T12:32:00.815Z,20.62
2017-01-31T12:33:00.049Z,20.62
2017-01-31T12:34:00.728Z,20.69
2017-01-31T12:35:00.899Z,20.58
2017-01-31T12:36:00.527Z,20.64
2017-01-31T12:37:00.952Z,20.67
2017-01-31T12:38:00.975Z,20.64
2017-01-31T12:39:00.856Z,20.59
2017-01-31T12:40:00.637Z,20.64
2017-01-31T12:41:00.669Z,20.67
2017-01-31T12:42:00.691Z,20.61
2017-01-31T12:43:00.728Z,20.64
2017-01-31T12:44:01.140Z,20.62
2017-01-31T12:45:00.770Z,20.61
2017-01-31T12:46:01.199Z,20.66
2017-01-31T12:47:00.822Z,20.59
2017-01-31T12:48:00.848Z,20.54
2017-01-31T12:49:01.273Z,20.62
2017-01-31T12:50:01.297Z,20.59
2017-01-31T12:51:00.925Z,20.62
2017-01-31T12:52:01.350Z,20.58
2017-01-31T12:53:00.994Z,20.62
2017-01-31T12:54:00.620Z,20.57
2017-01-31T12:55:01.702Z,20.59